Terminal Aerodrome Forecast
Issued by NWS

Home | Current Version | Previous Version | Text Only | Print | Product List | Glossary On
Versions: 1 2 3 4 5 6 7 8 9 10 11 12 13 14
000
FTAK31 PAJN 230500
TAFASI
TAF
PASI 230520Z 2306/2406 07005KT P6SM SCT050
     FM231400 10005KT P6SM VCSH SCT025 OVC045
     FM240000 11005KT P6SM SCT050=

USA.gov is the U.S. government's official web portal to all federal, state and local government web resources and services.